SNSO weather

Serro Airport
Serro, Minas Gerais, Brazil

Public forecast

Using degrees Celsius for public forecast. Weather courtesy of forecast.io.

METAR (pilot weather report)

Closest report is Tancredo Neves International Airport, 68.5 nm (126.8 km) SSW. Retrieved 2019/07/16 07:00 UTC (41 minutes ago):

SBCF 160700Z 15002KT CAVOK 13/09 Q1017

TAF (pilot weather forecast)

Forecast is more than 12 hours old.

Retrieved 2009/11/03 09:30 UTC (10 years ago):

TAF SNSO 030930Z 0312/0418 06010G20KT CAVOK TEMPO 0315/0319 5000 HZ